sensor_id;sensor_type;location;lat;lon;timestamp;temperature;humidity
39103;DHT22;24847;48.218;16.414;2024-03-06T00:00:25;7.60;86.50
39103;DHT22;24847;48.218;16.414;2024-03-06T00:05:27;7.50;86.30
39103;DHT22;24847;48.218;16.414;2024-03-06T00:10:31;7.40;86.40
39103;DHT22;24847;48.218;16.414;2024-03-06T00:15:33;7.50;86.00
39103;DHT22;24847;48.218;16.414;2024-03-06T00:20:35;7.30;86.30
39103;DHT22;24847;48.218;16.414;2024-03-06T00:25:38;7.40;86.10
39103;DHT22;24847;48.218;16.414;2024-03-06T00:30:41;7.30;86.40
39103;DHT22;24847;48.218;16.414;2024-03-06T00:35:43;7.30;86.50
39103;DHT22;24847;48.218;16.414;2024-03-06T00:40:47;7.10;87.10
39103;DHT22;24847;48.218;16.414;2024-03-06T00:45:50;7.10;87.30
39103;DHT22;24847;48.218;16.414;2024-03-06T00:50:52;7.30;86.30
39103;DHT22;24847;48.218;16.414;2024-03-06T00:55:55;7.20;86.70
39103;DHT22;24847;48.218;16.414;2024-03-06T01:00:57;7.20;86.80
39103;DHT22;24847;48.218;16.414;2024-03-06T01:05:59;6.90;87.70
39103;DHT22;24847;48.218;16.414;2024-03-06T01:11:03;6.90;87.90
39103;DHT22;24847;48.218;16.414;2024-03-06T01:16:06;6.90;87.90
39103;DHT22;24847;48.218;16.414;2024-03-06T01:21:09;7.00;87.80
39103;DHT22;24847;48.218;16.414;2024-03-06T01:26:12;7.50;85.80
39103;DHT22;24847;48.218;16.414;2024-03-06T01:31:15;7.20;86.70
39103;DHT22;24847;48.218;16.414;2024-03-06T01:36:17;7.10;87.20
39103;DHT22;24847;48.218;16.414;2024-03-06T01:41:21;6.90;87.60
39103;DHT22;24847;48.218;16.414;2024-03-06T01:46:23;6.90;88.00
39103;DHT22;24847;48.218;16.414;2024-03-06T01:51:25;6.90;88.10
39103;DHT22;24847;48.218;16.414;2024-03-06T01:56:29;6.80;88.60
39103;DHT22;24847;48.218;16.414;2024-03-06T02:01:32;6.90;88.00
39103;DHT22;24847;48.218;16.414;2024-03-06T02:06:35;6.80;88.50
39103;DHT22;24847;48.218;16.414;2024-03-06T02:11:40;6.90;88.60
39103;DHT22;24847;48.218;16.414;2024-03-06T02:16:42;6.90;88.10
39103;DHT22;24847;48.218;16.414;2024-03-06T02:21:45;6.90;87.80
39103;DHT22;24847;48.218;16.414;2024-03-06T02:26:48;6.70;88.40
39103;DHT22;24847;48.218;16.414;2024-03-06T02:31:50;6.80;88.30
39103;DHT22;24847;48.218;16.414;2024-03-06T02:36:53;6.70;88.70
39103;DHT22;24847;48.218;16.414;2024-03-06T02:41:55;6.60;88.50
39103;DHT22;24847;48.218;16.414;2024-03-06T02:46:58;6.60;87.70
39103;DHT22;24847;48.218;16.414;2024-03-06T02:52:01;6.30;88.60
39103;DHT22;24847;48.218;16.414;2024-03-06T02:57:03;6.60;87.00
39103;DHT22;24847;48.218;16.414;2024-03-06T03:02:06;6.30;89.20
39103;DHT22;24847;48.218;16.414;2024-03-06T03:07:09;6.60;87.30
39103;DHT22;24847;48.218;16.414;2024-03-06T03:12:12;6.40;87.10
39103;DHT22;24847;48.218;16.414;2024-03-06T03:17:15;6.60;86.60
39103;DHT22;24847;48.218;16.414;2024-03-06T03:22:18;6.10;88.60
39103;DHT22;24847;48.218;16.414;2024-03-06T03:27:20;6.30;87.60
39103;DHT22;24847;48.218;16.414;2024-03-06T03:32:23;5.90;88.40
39103;DHT22;24847;48.218;16.414;2024-03-06T03:37:27;6.10;88.50
39103;DHT22;24847;48.218;16.414;2024-03-06T03:42:29;5.80;89.20
39103;DHT22;24847;48.218;16.414;2024-03-06T03:47:31;6.00;87.90
39103;DHT22;24847;48.218;16.414;2024-03-06T03:52:36;5.70;89.00
39103;DHT22;24847;48.218;16.414;2024-03-06T03:57:42;6.00;87.80
39103;DHT22;24847;48.218;16.414;2024-03-06T04:02:44;5.90;87.70
39103;DHT22;24847;48.218;16.414;2024-03-06T04:07:48;5.90;88.00
39103;DHT22;24847;48.218;16.414;2024-03-06T04:12:50;5.90;87.60
39103;DHT22;24847;48.218;16.414;2024-03-06T04:17:52;5.70;88.30
39103;DHT22;24847;48.218;16.414;2024-03-06T04:22:56;5.60;88.40
39103;DHT22;24847;48.218;16.414;2024-03-06T04:27:58;5.60;88.70
39103;DHT22;24847;48.218;16.414;2024-03-06T04:33:01;5.60;88.60
39103;DHT22;24847;48.218;16.414;2024-03-06T04:38:04;5.60;88.30
39103;DHT22;24847;48.218;16.414;2024-03-06T04:43:07;5.70;88.30
39103;DHT22;24847;48.218;16.414;2024-03-06T04:48:09;5.60;88.40
39103;DHT22;24847;48.218;16.414;2024-03-06T04:53:12;5.60;87.80
39103;DHT22;24847;48.218;16.414;2024-03-06T04:58:14;5.60;88.40
39103;DHT22;24847;48.218;16.414;2024-03-06T05:03:16;5.50;87.80
39103;DHT22;24847;48.218;16.414;2024-03-06T05:08:20;5.70;87.00
39103;DHT22;24847;48.218;16.414;2024-03-06T05:13:23;5.60;87.20
39103;DHT22;24847;48.218;16.414;2024-03-06T05:18:25;5.70;86.70
39103;DHT22;24847;48.218;16.414;2024-03-06T05:23:28;5.60;86.10
39103;DHT22;24847;48.218;16.414;2024-03-06T05:28:31;5.40;87.20
39103;DHT22;24847;48.218;16.414;2024-03-06T05:33:33;5.70;85.30
39103;DHT22;24847;48.218;16.414;2024-03-06T05:38:36;5.60;85.60
39103;DHT22;24847;48.218;16.414;2024-03-06T05:43:38;5.70;85.80
39103;DHT22;24847;48.218;16.414;2024-03-06T05:48:41;5.80;84.20
39103;DHT22;24847;48.218;16.414;2024-03-06T05:53:45;5.80;84.20
39103;DHT22;24847;48.218;16.414;2024-03-06T05:58:47;5.60;85.00
39103;DHT22;24847;48.218;16.414;2024-03-06T06:03:49;5.50;84.50
39103;DHT22;24847;48.218;16.414;2024-03-06T06:08:53;5.70;84.20
39103;DHT22;24847;48.218;16.414;2024-03-06T06:13:55;5.60;83.80
39103;DHT22;24847;48.218;16.414;2024-03-06T06:18:57;5.90;82.60
39103;DHT22;24847;48.218;16.414;2024-03-06T06:24:01;5.90;83.00
39103;DHT22;24847;48.218;16.414;2024-03-06T06:29:04;5.80;82.80
39103;DHT22;24847;48.218;16.414;2024-03-06T06:34:06;5.80;82.60
39103;DHT22;24847;48.218;16.414;2024-03-06T06:39:09;5.80;83.40
39103;DHT22;24847;48.218;16.414;2024-03-06T06:44:12;5.80;81.80
39103;DHT22;24847;48.218;16.414;2024-03-06T06:49:15;6.00;82.00
39103;DHT22;24847;48.218;16.414;2024-03-06T06:54:20;6.10;81.70
39103;DHT22;24847;48.218;16.414;2024-03-06T06:59:22;6.20;80.70
39103;DHT22;24847;48.218;16.414;2024-03-06T07:04:24;6.60;79.60
39103;DHT22;24847;48.218;16.414;2024-03-06T07:09:28;6.40;79.70
39103;DHT22;24847;48.218;16.414;2024-03-06T07:14:31;6.50;78.50
39103;DHT22;24847;48.218;16.414;2024-03-06T07:19:33;6.60;78.90
39103;DHT22;24847;48.218;16.414;2024-03-06T07:24:36;6.80;78.40
39103;DHT22;24847;48.218;16.414;2024-03-06T07:29:39;6.70;78.80
39103;DHT22;24847;48.218;16.414;2024-03-06T07:34:41;6.60;79.00
39103;DHT22;24847;48.218;16.414;2024-03-06T07:39:45;6.50;78.60
39103;DHT22;24847;48.218;16.414;2024-03-06T07:44:47;6.80;77.60
39103;DHT22;24847;48.218;16.414;2024-03-06T07:49:49;6.90;77.60
39103;DHT22;24847;48.218;16.414;2024-03-06T07:54:53;7.00;76.70
39103;DHT22;24847;48.218;16.414;2024-03-06T07:59:55;7.00;76.50
39103;DHT22;24847;48.218;16.414;2024-03-06T08:04:59;7.00;76.30
39103;DHT22;24847;48.218;16.414;2024-03-06T08:10:02;6.90;76.00
39103;DHT22;24847;48.218;16.414;2024-03-06T08:15:07;7.20;76.30
39103;DHT22;24847;48.218;16.414;2024-03-06T08:20:12;7.20;76.00
39103;DHT22;24847;48.218;16.414;2024-03-06T08:25:16;7.30;76.10
39103;DHT22;24847;48.218;16.414;2024-03-06T08:30:18;7.30;75.90
39103;DHT22;24847;48.218;16.414;2024-03-06T08:35:20;7.20;76.10
39103;DHT22;24847;48.218;16.414;2024-03-06T08:40:25;7.50;75.90
39103;DHT22;24847;48.218;16.414;2024-03-06T08:45:28;7.70;75.30
39103;DHT22;24847;48.218;16.414;2024-03-06T08:50:30;8.30;73.70
39103;DHT22;24847;48.218;16.414;2024-03-06T08:55:34;8.00;73.60
39103;DHT22;24847;48.218;16.414;2024-03-06T09:00:36;8.10;73.60
39103;DHT22;24847;48.218;16.414;2024-03-06T09:05:39;8.20;72.30
39103;DHT22;24847;48.218;16.414;2024-03-06T09:10:43;8.60;71.90
39103;DHT22;24847;48.218;16.414;2024-03-06T09:15:45;8.50;69.40
39103;DHT22;24847;48.218;16.414;2024-03-06T09:20:47;8.70;68.10
39103;DHT22;24847;48.218;16.414;2024-03-06T09:25:50;10.50;62.80
39103;DHT22;24847;48.218;16.414;2024-03-06T09:30:54;11.40;57.80
39103;DHT22;24847;48.218;16.414;2024-03-06T09:35:57;11.80;56.00
39103;DHT22;24847;48.218;16.414;2024-03-06T09:41:01;12.30;57.00
39103;DHT22;24847;48.218;16.414;2024-03-06T09:46:03;13.30;54.30
39103;DHT22;24847;48.218;16.414;2024-03-06T09:51:06;12.50;55.30
39103;DHT22;24847;48.218;16.414;2024-03-06T09:56:10;12.70;55.20
39103;DHT22;24847;48.218;16.414;2024-03-06T10:01:14;12.40;53.60
39103;DHT22;24847;48.218;16.414;2024-03-06T10:06:17;12.80;53.90
39103;DHT22;24847;48.218;16.414;2024-03-06T10:11:21;12.90;52.80
39103;DHT22;24847;48.218;16.414;2024-03-06T10:16:23;13.60;53.00
39103;DHT22;24847;48.218;16.414;2024-03-06T10:21:31;13.00;52.20
39103;DHT22;24847;48.218;16.414;2024-03-06T10:26:35;12.70;52.30
39103;DHT22;24847;48.218;16.414;2024-03-06T10:31:37;13.20;51.70
39103;DHT22;24847;48.218;16.414;2024-03-06T10:36:40;12.60;52.70
39103;DHT22;24847;48.218;16.414;2024-03-06T10:41:44;13.00;52.70
39103;DHT22;24847;48.218;16.414;2024-03-06T10:46:47;12.90;52.20
39103;DHT22;24847;48.218;16.414;2024-03-06T10:51:57;13.00;51.80
39103;DHT22;24847;48.218;16.414;2024-03-06T10:57:02;12.70;51.90
39103;DHT22;24847;48.218;16.414;2024-03-06T11:02:04;12.30;52.90
39103;DHT22;24847;48.218;16.414;2024-03-06T11:07:09;12.10;54.30
39103;DHT22;24847;48.218;16.414;2024-03-06T11:12:12;12.50;52.70
39103;DHT22;24847;48.218;16.414;2024-03-06T11:17:15;12.70;51.70
39103;DHT22;24847;48.218;16.414;2024-03-06T11:22:17;12.40;53.30
39103;DHT22;24847;48.218;16.414;2024-03-06T11:27:22;12.10;53.20
39103;DHT22;24847;48.218;16.414;2024-03-06T11:32:24;12.30;53.20
39103;DHT22;24847;48.218;16.414;2024-03-06T11:37:27;12.50;53.30
39103;DHT22;24847;48.218;16.414;2024-03-06T11:42:36;12.10;52.70
39103;DHT22;24847;48.218;16.414;2024-03-06T11:47:58;12.20;53.40
39103;DHT22;24847;48.218;16.414;2024-03-06T11:53:01;12.10;53.70
39103;DHT22;24847;48.218;16.414;2024-03-06T11:58:07;12.20;53.50
39103;DHT22;24847;48.218;16.414;2024-03-06T12:03:11;12.30;53.50
39103;DHT22;24847;48.218;16.414;2024-03-06T12:08:13;12.10;53.60
39103;DHT22;24847;48.218;16.414;2024-03-06T12:13:17;11.90;54.50
39103;DHT22;24847;48.218;16.414;2024-03-06T12:18:21;12.10;54.10
39103;DHT22;24847;48.218;16.414;2024-03-06T12:23:24;11.60;55.20
39103;DHT22;24847;48.218;16.414;2024-03-06T12:28:28;11.90;54.80
39103;DHT22;24847;48.218;16.414;2024-03-06T12:33:31;11.80;55.40
39103;DHT22;24847;48.218;16.414;2024-03-06T12:38:34;12.00;54.20
39103;DHT22;24847;48.218;16.414;2024-03-06T12:43:38;11.70;55.30
39103;DHT22;24847;48.218;16.414;2024-03-06T12:48:40;12.10;54.60
39103;DHT22;24847;48.218;16.414;2024-03-06T12:53:43;11.60;55.50
39103;DHT22;24847;48.218;16.414;2024-03-06T12:58:46;11.10;57.00
39103;DHT22;24847;48.218;16.414;2024-03-06T13:03:48;11.00;57.50
39103;DHT22;24847;48.218;16.414;2024-03-06T13:08:51;10.90;58.10
39103;DHT22;24847;48.218;16.414;2024-03-06T13:13:54;10.60;58.40
39103;DHT22;24847;48.218;16.414;2024-03-06T13:18:56;10.80;58.60
39103;DHT22;24847;48.218;16.414;2024-03-06T13:24:01;10.60;59.10
39103;DHT22;24847;48.218;16.414;2024-03-06T13:29:04;10.50;58.20
39103;DHT22;24847;48.218;16.414;2024-03-06T13:34:07;10.70;58.00
39103;DHT22;24847;48.218;16.414;2024-03-06T13:39:10;10.50;57.70
39103;DHT22;24847;48.218;16.414;2024-03-06T13:44:13;10.70;58.00
39103;DHT22;24847;48.218;16.414;2024-03-06T13:49:37;10.40;59.80
39103;DHT22;24847;48.218;16.414;2024-03-06T13:54:40;10.40;59.80
39103;DHT22;24847;48.218;16.414;2024-03-06T13:59:44;10.50;59.40
39103;DHT22;24847;48.218;16.414;2024-03-06T14:04:47;10.60;59.10
39103;DHT22;24847;48.218;16.414;2024-03-06T14:09:49;10.40;59.20
39103;DHT22;24847;48.218;16.414;2024-03-06T14:14:53;10.20;59.60
39103;DHT22;24847;48.218;16.414;2024-03-06T14:19:55;10.20;59.60
39103;DHT22;24847;48.218;16.414;2024-03-06T14:24:57;10.00;59.90
39103;DHT22;24847;48.218;16.414;2024-03-06T14:30:01;10.20;59.60
39103;DHT22;24847;48.218;16.414;2024-03-06T14:35:04;10.20;59.30
39103;DHT22;24847;48.218;16.414;2024-03-06T14:40:08;10.00;60.30
39103;DHT22;24847;48.218;16.414;2024-03-06T14:45:13;9.80;59.90
39103;DHT22;24847;48.218;16.414;2024-03-06T14:50:15;10.00;60.60
39103;DHT22;24847;48.218;16.414;2024-03-06T14:55:17;10.10;59.70
39103;DHT22;24847;48.218;16.414;2024-03-06T15:00:21;9.80;59.10
39103;DHT22;24847;48.218;16.414;2024-03-06T15:05:23;9.90;58.90
39103;DHT22;24847;48.218;16.414;2024-03-06T15:10:26;9.90;58.70
39103;DHT22;24847;48.218;16.414;2024-03-06T15:15:29;10.00;58.90
39103;DHT22;24847;48.218;16.414;2024-03-06T15:20:32;9.90;58.40
39103;DHT22;24847;48.218;16.414;2024-03-06T15:25:34;9.90;57.90
39103;DHT22;24847;48.218;16.414;2024-03-06T15:30:38;9.80;58.70
39103;DHT22;24847;48.218;16.414;2024-03-06T15:35:40;9.80;57.70
39103;DHT22;24847;48.218;16.414;2024-03-06T15:40:42;9.90;57.80
39103;DHT22;24847;48.218;16.414;2024-03-06T15:45:46;10.00;59.00
39103;DHT22;24847;48.218;16.414;2024-03-06T15:50:48;10.00;57.90
39103;DHT22;24847;48.218;16.414;2024-03-06T15:55:50;9.90;58.40
39103;DHT22;24847;48.218;16.414;2024-03-06T16:00:54;9.70;58.20
39103;DHT22;24847;48.218;16.414;2024-03-06T16:05:57;9.70;58.30
39103;DHT22;24847;48.218;16.414;2024-03-06T16:10:59;9.50;58.90
39103;DHT22;24847;48.218;16.414;2024-03-06T16:16:04;9.70;58.70
39103;DHT22;24847;48.218;16.414;2024-03-06T16:21:06;9.50;59.50
39103;DHT22;24847;48.218;16.414;2024-03-06T16:26:09;9.60;59.50
39103;DHT22;24847;48.218;16.414;2024-03-06T16:31:12;9.60;59.90
39103;DHT22;24847;48.218;16.414;2024-03-06T16:36:14;9.50;59.90
39103;DHT22;24847;48.218;16.414;2024-03-06T16:41:17;9.30;60.40
39103;DHT22;24847;48.218;16.414;2024-03-06T16:46:20;9.20;60.90
39103;DHT22;24847;48.218;16.414;2024-03-06T16:51:26;9.20;61.10
39103;DHT22;24847;48.218;16.414;2024-03-06T16:56:29;9.40;61.10
39103;DHT22;24847;48.218;16.414;2024-03-06T17:01:33;9.30;61.00
39103;DHT22;24847;48.218;16.414;2024-03-06T17:06:35;9.10;61.60
39103;DHT22;24847;48.218;16.414;2024-03-06T17:11:37;9.10;62.10
39103;DHT22;24847;48.218;16.414;2024-03-06T17:16:41;9.10;62.10
39103;DHT22;24847;48.218;16.414;2024-03-06T17:21:43;9.10;62.40
39103;DHT22;24847;48.218;16.414;2024-03-06T17:26:45;9.00;62.00
39103;DHT22;24847;48.218;16.414;2024-03-06T17:31:48;9.00;62.70
39103;DHT22;24847;48.218;16.414;2024-03-06T17:36:51;9.10;61.90
39103;DHT22;24847;48.218;16.414;2024-03-06T17:41:53;9.10;61.50
39103;DHT22;24847;48.218;16.414;2024-03-06T17:46:57;9.10;61.60
39103;DHT22;24847;48.218;16.414;2024-03-06T17:51:59;9.10;61.90
39103;DHT22;24847;48.218;16.414;2024-03-06T17:57:01;8.60;63.10
39103;DHT22;24847;48.218;16.414;2024-03-06T18:02:06;8.60;63.40
39103;DHT22;24847;48.218;16.414;2024-03-06T18:07:08;8.60;63.90
39103;DHT22;24847;48.218;16.414;2024-03-06T18:12:10;8.70;62.90
39103;DHT22;24847;48.218;16.414;2024-03-06T18:17:14;8.80;62.40
39103;DHT22;24847;48.218;16.414;2024-03-06T18:22:16;9.00;62.10
39103;DHT22;24847;48.218;16.414;2024-03-06T18:27:19;8.80;62.50
39103;DHT22;24847;48.218;16.414;2024-03-06T18:32:23;8.60;62.10
39103;DHT22;24847;48.218;16.414;2024-03-06T18:37:26;8.60;60.90
39103;DHT22;24847;48.218;16.414;2024-03-06T18:42:28;8.70;61.00
39103;DHT22;24847;48.218;16.414;2024-03-06T18:47:31;8.40;61.20
39103;DHT22;24847;48.218;16.414;2024-03-06T18:52:34;8.40;61.70
39103;DHT22;24847;48.218;16.414;2024-03-06T18:57:36;8.20;61.50
39103;DHT22;24847;48.218;16.414;2024-03-06T19:02:41;8.10;62.10
39103;DHT22;24847;48.218;16.414;2024-03-06T19:07:44;8.30;61.60
39103;DHT22;24847;48.218;16.414;2024-03-06T19:12:47;8.20;61.70
39103;DHT22;24847;48.218;16.414;2024-03-06T19:17:51;8.20;62.20
39103;DHT22;24847;48.218;16.414;2024-03-06T19:22:53;8.30;61.50
39103;DHT22;24847;48.218;16.414;2024-03-06T19:27:55;8.30;62.00
39103;DHT22;24847;48.218;16.414;2024-03-06T19:32:59;8.00;61.80
39103;DHT22;24847;48.218;16.414;2024-03-06T19:38:01;7.60;62.80
39103;DHT22;24847;48.218;16.414;2024-03-06T19:43:03;7.70;63.20
39103;DHT22;24847;48.218;16.414;2024-03-06T19:48:07;7.70;63.40
39103;DHT22;24847;48.218;16.414;2024-03-06T19:53:09;8.00;63.30
39103;DHT22;24847;48.218;16.414;2024-03-06T19:58:11;8.00;63.40
39103;DHT22;24847;48.218;16.414;2024-03-06T20:03:15;7.80;65.30
39103;DHT22;24847;48.218;16.414;2024-03-06T20:08:18;7.60;64.80
39103;DHT22;24847;48.218;16.414;2024-03-06T20:13:21;7.70;65.20
39103;DHT22;24847;48.218;16.414;2024-03-06T20:18:25;7.60;66.50
39103;DHT22;24847;48.218;16.414;2024-03-06T20:23:27;7.60;66.00
39103;DHT22;24847;48.218;16.414;2024-03-06T20:28:29;7.80;65.70
39103;DHT22;24847;48.218;16.414;2024-03-06T20:33:33;7.70;66.70
39103;DHT22;24847;48.218;16.414;2024-03-06T20:38:35;7.40;68.30
39103;DHT22;24847;48.218;16.414;2024-03-06T20:43:38;7.60;67.60
39103;DHT22;24847;48.218;16.414;2024-03-06T20:48:42;7.70;67.90
39103;DHT22;24847;48.218;16.414;2024-03-06T20:53:44;7.50;68.50
39103;DHT22;24847;48.218;16.414;2024-03-06T20:58:47;7.70;68.70
39103;DHT22;24847;48.218;16.414;2024-03-06T21:03:51;7.50;69.60
39103;DHT22;24847;48.218;16.414;2024-03-06T21:08:54;7.30;70.50
39103;DHT22;24847;48.218;16.414;2024-03-06T21:13:56;7.30;70.10
39103;DHT22;24847;48.218;16.414;2024-03-06T21:19:00;7.30;70.50
39103;DHT22;24847;48.218;16.414;2024-03-06T21:24:08;7.10;71.40
39103;DHT22;24847;48.218;16.414;2024-03-06T21:29:11;7.40;70.40
39103;DHT22;24847;48.218;16.414;2024-03-06T21:34:15;7.20;71.20
39103;DHT22;24847;48.218;16.414;2024-03-06T21:39:17;7.10;71.80
39103;DHT22;24847;48.218;16.414;2024-03-06T21:44:19;7.20;71.30
39103;DHT22;24847;48.218;16.414;2024-03-06T21:49:24;6.80;72.80
39103;DHT22;24847;48.218;16.414;2024-03-06T21:54:31;6.80;73.30
39103;DHT22;24847;48.218;16.414;2024-03-06T21:59:34;7.00;73.10
39103;DHT22;24847;48.218;16.414;2024-03-06T22:04:38;7.30;72.20
39103;DHT22;24847;48.218;16.414;2024-03-06T22:09:40;7.00;72.80
39103;DHT22;24847;48.218;16.414;2024-03-06T22:14:43;7.00;73.20
39103;DHT22;24847;48.218;16.414;2024-03-06T22:19:47;6.80;74.80
39103;DHT22;24847;48.218;16.414;2024-03-06T22:24:49;6.80;75.20
39103;DHT22;24847;48.218;16.414;2024-03-06T22:29:52;6.80;75.40
39103;DHT22;24847;48.218;16.414;2024-03-06T22:34:56;6.60;76.30
39103;DHT22;24847;48.218;16.414;2024-03-06T22:39:58;6.50;77.70
39103;DHT22;24847;48.218;16.414;2024-03-06T22:45:00;6.60;76.90
39103;DHT22;24847;48.218;16.414;2024-03-06T22:50:05;6.80;76.10
39103;DHT22;24847;48.218;16.414;2024-03-06T22:55:08;6.90;75.60
39103;DHT22;24847;48.218;16.414;2024-03-06T23:00:11;6.90;75.70
39103;DHT22;24847;48.218;16.414;2024-03-06T23:05:30;7.00;74.80
39103;DHT22;24847;48.218;16.414;2024-03-06T23:10:32;6.60;76.30
39103;DHT22;24847;48.218;16.414;2024-03-06T23:15:34;6.50;76.90
39103;DHT22;24847;48.218;16.414;2024-03-06T23:20:38;6.60;77.90
39103;DHT22;24847;48.218;16.414;2024-03-06T23:25:41;6.50;77.00
39103;DHT22;24847;48.218;16.414;2024-03-06T23:30:43;6.60;76.80
39103;DHT22;24847;48.218;16.414;2024-03-06T23:35:46;6.50;76.90
39103;DHT22;24847;48.218;16.414;2024-03-06T23:40:49;6.40;78.00
39103;DHT22;24847;48.218;16.414;2024-03-06T23:45:51;6.60;76.60
39103;DHT22;24847;48.218;16.414;2024-03-06T23:50:54;6.70;76.00
39103;DHT22;24847;48.218;16.414;2024-03-06T23:55:56;6.30;77.20
